X  Zatvorit Metar udaje     LZPP Piešťany Airport
Teplota
16°C Teplota
15°C Rosny bod
94% Vlhkost



Vietor
8 KM/h
5 MPH
2 M/S
4 KTS



20°
SSV
Aktualne pocasie

Unknown Unknown
Tlak 1024.92 (hPa) - 30.27 (inHg)
Viditelnost 6.2 (mile) - 10 (km)
Letisko
Kod letiska LZPP

Miesto: Piešťany Airport
Vzdialenost: 31 (km)

Metar:
LZPP 252230Z AUTO 02004KT 9999 16/15 Q1025

Cas: 25-09-2023 22:30 CEST